createdAt,value
2017-11-15T00:02:06.640Z,98380.99
2017-11-15T00:04:35.667Z,98384.59
2017-11-15T00:07:04.567Z,98381.04
2017-11-15T00:09:33.452Z,98384.05
2017-11-15T00:12:03.108Z,98378.63
2017-11-15T00:14:31.828Z,98390.48
2017-11-15T00:17:00.556Z,98387.34
2017-11-15T00:19:30.074Z,98383.81
2017-11-15T00:21:59.114Z,98394.61
2017-11-15T00:24:28.023Z,98399.45
2017-11-15T00:26:57.027Z,98388.89
2017-11-15T00:29:26.044Z,98386.55
2017-11-15T00:31:54.816Z,98390.95
2017-11-15T00:34:24.345Z,98400.22
2017-11-15T00:36:53.174Z,98394.27
2017-11-15T00:39:22.043Z,98396.70
2017-11-15T00:41:50.873Z,98396.62
2017-11-15T00:44:20.354Z,98396.39
2017-11-15T00:46:49.264Z,98388.80
2017-11-15T00:49:18.041Z,98399.85
2017-11-15T00:51:46.874Z,98404.02
2017-11-15T00:54:16.641Z,98408.52
2017-11-15T00:56:45.513Z,98406.35
2017-11-15T00:59:14.664Z,98405.09
2017-11-15T01:01:43.375Z,98412.05
2017-11-15T01:04:12.954Z,98423.87
2017-11-15T01:06:41.833Z,98417.91
2017-11-15T01:09:10.656Z,98414.71
2017-11-15T01:11:39.599Z,98416.62
2017-11-15T01:14:08.721Z,98414.43
2017-11-15T01:16:37.531Z,98417.16
2017-11-15T01:19:06.330Z,98424.67
2017-11-15T01:21:35.136Z,98429.89
2017-11-15T01:24:03.855Z,98435.62
2017-11-15T01:26:32.611Z,98430.28
2017-11-15T01:29:02.147Z,98440.09
2017-11-15T01:31:30.985Z,98438.02
2017-11-15T01:33:59.748Z,98435.77
2017-11-15T01:36:28.945Z,98441.05
2017-11-15T01:38:57.923Z,98446.52
2017-11-15T01:41:27.547Z,98444.64
2017-11-15T01:43:56.685Z,98447.75
2017-11-15T01:46:26.237Z,98437.04
2017-11-15T01:48:55.099Z,98437.76
2017-11-15T01:51:23.722Z,98436.63
2017-11-15T01:53:52.546Z,98437.38
2017-11-15T01:56:21.332Z,98442.61
2017-11-15T01:58:50.119Z,98441.91
2017-11-15T02:01:19.762Z,98448.40
2017-11-15T02:03:48.468Z,98454.96
2017-11-15T02:06:17.276Z,98448.72
2017-11-15T02:08:46.100Z,98456.18
2017-11-15T02:11:14.846Z,98448.63
2017-11-15T02:13:43.631Z,98446.91
2017-11-15T02:16:12.524Z,98451.63
2017-11-15T02:18:41.393Z,98449.61
2017-11-15T02:21:10.135Z,98455.94
2017-11-15T02:23:38.924Z,98453.89
2017-11-15T02:26:07.669Z,98455.38
2017-11-15T02:28:36.516Z,98450.62
2017-11-15T02:31:05.294Z,98456.24
2017-11-15T02:33:34.152Z,98452.55
2017-11-15T02:36:03.445Z,98451.67
2017-11-15T02:38:32.375Z,98453.84
2017-11-15T02:41:01.381Z,98457.23
2017-11-15T02:43:30.444Z,98461.77
2017-11-15T02:45:59.445Z,98455.38
2017-11-15T02:48:28.226Z,98459.56
2017-11-15T02:50:57.133Z,98455.82
2017-11-15T02:53:26.048Z,98457.34
2017-11-15T02:55:55.684Z,98448.30
2017-11-15T02:58:24.379Z,98442.98
2017-11-15T03:00:53.205Z,98445.76
2017-11-15T03:03:22.048Z,98439.28
2017-11-15T03:05:50.837Z,98439.39
2017-11-15T03:08:19.569Z,98451.37
2017-11-15T03:10:48.839Z,98451.37
2017-11-15T03:13:17.802Z,98461.34
2017-11-15T03:15:46.670Z,98454.12
2017-11-15T03:18:15.442Z,98455.31
2017-11-15T03:20:44.285Z,98453.02
2017-11-15T03:23:13.061Z,98459.59
2017-11-15T03:25:41.848Z,98452.84
2017-11-15T03:28:10.730Z,98455.23
2017-11-15T03:30:39.515Z,98456.59
2017-11-15T03:33:08.356Z,98454.38
2017-11-15T03:35:37.083Z,98452.66
2017-11-15T03:38:05.864Z,98450.30
2017-11-15T03:40:34.629Z,98445.92
2017-11-15T03:43:03.664Z,98451.88
2017-11-15T03:45:32.462Z,98444.11
2017-11-15T03:48:01.271Z,98442.53
2017-11-15T03:50:30.083Z,98441.32
2017-11-15T03:52:58.968Z,98441.81
2017-11-15T03:55:27.788Z,98446.38
2017-11-15T03:57:57.371Z,98445.56
2017-11-15T04:00:26.127Z,98442.22
2017-11-15T04:02:54.961Z,98448.28
2017-11-15T04:05:23.709Z,98452.70
2017-11-15T04:07:52.668Z,98455.45
2017-11-15T04:10:21.429Z,98452.72
2017-11-15T04:12:50.287Z,98448.73
2017-11-15T04:15:19.084Z,98452.25
2017-11-15T04:17:47.759Z,98463.31
2017-11-15T04:20:16.551Z,98460.09
2017-11-15T04:22:45.664Z,98448.03
2017-11-15T04:25:15.242Z,98448.03
2017-11-15T04:27:43.955Z,98455.55
2017-11-15T04:30:12.723Z,98454.23
2017-11-15T04:32:41.684Z,98451.05
2017-11-15T04:35:10.691Z,98451.27
2017-11-15T04:37:39.610Z,98451.55
2017-11-15T04:40:08.441Z,98452.97
2017-11-15T04:42:37.172Z,98455.63
2017-11-15T04:45:05.986Z,98460.95
2017-11-15T04:47:34.802Z,98455.77
2017-11-15T04:50:03.632Z,98464.16
2017-11-15T04:52:32.347Z,98458.34
2017-11-15T04:55:01.125Z,98463.06
2017-11-15T04:57:30.071Z,98460.98
2017-11-15T04:59:58.940Z,98465.89
2017-11-15T05:02:27.741Z,98467.44
2017-11-15T05:04:56.423Z,98463.96
2017-11-15T05:07:26.013Z,98469.25
2017-11-15T05:09:54.762Z,98464.45
2017-11-15T05:12:23.545Z,98470.14
2017-11-15T05:15:00.376Z,98471.41
2017-11-15T05:17:29.227Z,98480.36
2017-11-15T05:19:58.001Z,98478.97
2017-11-15T05:22:26.788Z,98472.80
2017-11-15T05:24:55.534Z,98485.94
2017-11-15T05:27:24.601Z,98484.67
2017-11-15T05:29:54.186Z,98479.09
2017-11-15T05:32:22.998Z,98490.00
2017-11-15T05:34:51.800Z,98486.48
2017-11-15T05:37:20.591Z,98490.66
2017-11-15T05:39:49.898Z,98494.72
2017-11-15T05:42:18.632Z,98496.11
2017-11-15T05:44:47.461Z,98495.72
2017-11-15T05:47:16.371Z,98496.84
2017-11-15T05:49:45.453Z,98502.55
2017-11-15T05:52:14.889Z,98505.25
2017-11-15T05:54:43.768Z,98503.53
2017-11-15T05:57:12.541Z,98524.33
2017-11-15T05:59:41.385Z,98525.47
2017-11-15T06:02:10.241Z,98520.03
2017-11-15T06:04:39.053Z,98524.38
2017-11-15T06:07:07.895Z,98519.95
2017-11-15T06:09:36.905Z,98529.84
2017-11-15T06:12:05.690Z,98529.69
2017-11-15T06:14:34.505Z,98535.27
2017-11-15T06:17:04.028Z,98534.67
2017-11-15T06:19:32.970Z,98535.66
2017-11-15T06:22:01.876Z,98538.59
2017-11-15T06:24:30.727Z,98539.23
2017-11-15T06:26:59.564Z,98546.63
2017-11-15T06:29:28.850Z,98546.77
2017-11-15T06:31:58.824Z,98550.67
2017-11-15T06:34:27.598Z,98546.44
2017-11-15T06:36:56.576Z,98543.95
2017-11-15T06:39:25.451Z,98542.88
2017-11-15T06:41:58.324Z,98545.52
2017-11-15T06:44:28.308Z,98544.58
2017-11-15T06:46:59.310Z,98541.36
2017-11-15T06:49:30.163Z,98541.34
2017-11-15T06:52:03.678Z,98543.44
2017-11-15T06:54:34.230Z,98546.78
2017-11-15T06:57:06.947Z,98552.87
2017-11-15T06:59:36.647Z,98551.19
2017-11-15T07:02:07.508Z,98557.73
2017-11-15T07:04:39.039Z,98559.83
2017-11-15T07:07:08.095Z,98562.07
2017-11-15T07:09:37.212Z,98558.97
2017-11-15T07:12:07.366Z,98565.47
2017-11-15T07:14:36.885Z,98564.48
2017-11-15T07:17:05.962Z,98566.24
2017-11-15T07:19:36.567Z,98558.88
2017-11-15T07:22:06.258Z,98564.40
2017-11-15T07:24:37.322Z,98556.92
2017-11-15T07:27:06.575Z,98562.26
2017-11-15T07:29:37.196Z,98557.44
2017-11-15T07:32:06.970Z,98558.22
2017-11-15T07:34:37.692Z,98557.50
2017-11-15T07:37:06.757Z,98570.41
2017-11-15T07:39:37.406Z,98561.16
2017-11-15T07:42:09.738Z,98557.30
2017-11-15T07:44:39.856Z,98553.67
2017-11-15T07:47:09.856Z,98561.02
2017-11-15T07:49:40.080Z,98562.29
2017-11-15T07:52:09.929Z,98562.27
2017-11-15T07:54:39.807Z,98568.84
2017-11-15T07:57:10.284Z,98570.06
2017-11-15T07:59:42.506Z,98570.10
2017-11-15T08:02:12.964Z,98577.13
2017-11-15T08:04:43.200Z,98573.19
2017-11-15T08:07:13.094Z,98574.81
2017-11-15T08:09:45.716Z,98570.44
2017-11-15T08:12:17.365Z,98572.90
2017-11-15T08:14:47.982Z,98571.11
2017-11-15T08:17:19.249Z,98572.21
2017-11-15T08:19:49.112Z,98572.23
2017-11-15T08:22:18.205Z,98571.41
2017-11-15T08:24:48.178Z,98575.95
2017-11-15T08:27:22.026Z,98572.36
2017-11-15T08:29:55.642Z,98574.02
2017-11-15T08:32:26.492Z,98584.63
2017-11-15T08:34:55.695Z,98572.61
2017-11-15T08:37:27.246Z,98576.29
2017-11-15T08:39:56.225Z,98574.56
2017-11-15T08:42:28.380Z,98581.34
2017-11-15T08:45:00.526Z,98578.66
2017-11-15T08:47:30.732Z,98576.37
2017-11-15T08:50:00.610Z,98580.64
2017-11-15T08:52:30.756Z,98574.62
2017-11-15T08:54:59.871Z,98569.44
2017-11-15T08:57:32.924Z,98559.55
2017-11-15T09:00:01.851Z,98567.67
2017-11-15T09:02:32.189Z,98566.50
2017-11-15T09:05:02.802Z,98566.21
2017-11-15T09:07:32.004Z,98575.34
2017-11-15T09:10:02.387Z,98570.34
2017-11-15T09:12:34.539Z,98563.87
2017-11-15T09:15:06.676Z,98566.63
2017-11-15T09:17:38.688Z,98572.45
2017-11-15T09:20:11.021Z,98572.33
2017-11-15T09:22:42.057Z,98571.64
2017-11-15T09:25:12.835Z,98570.05
2017-11-15T09:27:43.540Z,98575.10
2017-11-15T09:30:12.773Z,98563.88
2017-11-15T09:32:44.651Z,98563.69
2017-11-15T09:35:14.877Z,98559.23
2017-11-15T09:37:45.064Z,98551.84
2017-11-15T09:40:15.028Z,98551.86
2017-11-15T09:42:44.191Z,98551.70
2017-11-15T09:45:14.720Z,98553.61
2017-11-15T09:47:47.743Z,98550.42
2017-11-15T09:50:17.417Z,98545.72
2017-11-15T09:52:48.390Z,98543.86
2017-11-15T09:55:19.315Z,98547.39
2017-11-15T09:57:48.454Z,98545.20
2017-11-15T10:00:20.845Z,98544.77
2017-11-15T10:02:51.332Z,98539.98
2017-11-15T10:05:20.432Z,98545.52
2017-11-15T10:07:49.536Z,98543.02
2017-11-15T10:10:18.661Z,98542.02
2017-11-15T10:12:49.355Z,98544.31
2017-11-15T10:15:19.244Z,98540.73
2017-11-15T10:17:48.261Z,98541.95
2017-11-15T10:20:18.405Z,98542.63
2017-11-15T10:22:47.812Z,98538.95
2017-11-15T10:25:16.703Z,98534.31
2017-11-15T10:27:46.645Z,98529.05
2017-11-15T10:30:18.093Z,98524.53
2017-11-15T10:32:48.445Z,98525.61
2017-11-15T10:35:19.016Z,98522.02
2017-11-15T10:37:49.447Z,98529.02
2017-11-15T10:40:19.077Z,98524.41
2017-11-15T10:42:49.320Z,98521.97
2017-11-15T10:45:20.426Z,98520.92
2017-11-15T10:47:50.952Z,98522.98
2017-11-15T10:50:20.862Z,98514.85
2017-11-15T10:52:49.786Z,98518.28
2017-11-15T10:55:19.606Z,98505.16
2017-11-15T10:57:49.506Z,98512.33
2017-11-15T11:00:18.885Z,98507.61
2017-11-15T11:02:50.410Z,98504.91
2017-11-15T11:05:20.008Z,98510.00
2017-11-15T11:07:50.996Z,98507.31
2017-11-15T11:10:20.207Z,98512.83
2017-11-15T11:12:51.182Z,98512.47
2017-11-15T11:15:20.119Z,98509.59
2017-11-15T11:17:49.737Z,98506.64
2017-11-15T11:20:18.861Z,98513.90
2017-11-15T11:22:47.927Z,98516.75
2017-11-15T11:25:16.976Z,98514.70
2017-11-15T11:27:46.731Z,98505.80
2017-11-15T11:30:16.028Z,98502.38
2017-11-15T11:32:45.131Z,98496.64
2017-11-15T11:35:14.759Z,98504.08
2017-11-15T11:37:43.761Z,98494.37
2017-11-15T11:40:12.700Z,98490.30
2017-11-15T11:42:41.942Z,98488.18
2017-11-15T11:45:10.788Z,98490.17
2017-11-15T11:47:40.571Z,98483.23
2017-11-15T11:50:10.954Z,98484.95
2017-11-15T11:52:40.115Z,98485.00
2017-11-15T11:55:09.053Z,98473.92
2017-11-15T11:57:38.840Z,98465.52
2017-11-15T12:00:07.954Z,98469.80
2017-11-15T12:02:36.983Z,98470.93
2017-11-15T12:05:07.142Z,98467.48
2017-11-15T12:07:38.844Z,98463.83
2017-11-15T12:10:09.635Z,98464.77
2017-11-15T12:12:38.516Z,98464.02
2017-11-15T12:15:08.791Z,98460.69
2017-11-15T12:17:37.765Z,98460.44
2017-11-15T12:20:07.473Z,98458.71
2017-11-15T12:22:37.313Z,98455.09
2017-11-15T12:25:06.821Z,98457.84
2017-11-15T12:27:36.495Z,98455.69
2017-11-15T12:30:05.292Z,98457.98
2017-11-15T12:32:34.179Z,98459.38
2017-11-15T12:35:04.073Z,98452.52
2017-11-15T12:37:33.925Z,98453.41
2017-11-15T12:40:02.833Z,98448.03
2017-11-15T12:42:34.157Z,98451.03
2017-11-15T12:45:03.414Z,98451.11
2017-11-15T12:47:35.642Z,98449.37
2017-11-15T12:50:04.774Z,98442.89
2017-11-15T12:52:34.459Z,98436.38
2017-11-15T12:55:03.314Z,98432.70
2017-11-15T12:57:32.449Z,98431.74
2017-11-15T13:00:01.316Z,98437.34
2017-11-15T13:02:30.136Z,98433.54
2017-11-15T13:04:59.022Z,98434.88
2017-11-15T13:07:29.933Z,98436.12
2017-11-15T13:09:59.542Z,98431.87
2017-11-15T13:12:28.728Z,98431.70
2017-11-15T13:14:57.694Z,98436.73
2017-11-15T13:17:27.284Z,98435.05
2017-11-15T13:19:56.623Z,98436.71
2017-11-15T13:22:25.586Z,98430.78
2017-11-15T13:24:54.684Z,98433.88
2017-11-15T13:27:23.715Z,98431.74
2017-11-15T13:29:53.314Z,98431.89
2017-11-15T13:32:23.367Z,98436.86
2017-11-15T13:34:53.651Z,98429.78
2017-11-15T13:37:22.521Z,98432.75
2017-11-15T13:39:51.572Z,98433.30
2017-11-15T13:42:20.494Z,98433.80
2017-11-15T13:44:50.057Z,98438.89
2017-11-15T13:47:18.967Z,98428.73
2017-11-15T13:49:47.893Z,98421.84
2017-11-15T13:52:17.147Z,98426.38
2017-11-15T13:54:46.027Z,98427.64
2017-11-15T13:57:14.826Z,98423.21
2017-11-15T13:59:43.633Z,98418.64
2017-11-15T14:02:13.257Z,98421.32
2017-11-15T14:04:42.684Z,98426.14
2017-11-15T14:07:12.910Z,98423.56
2017-11-15T14:09:42.051Z,98423.61
2017-11-15T14:12:11.174Z,98414.57
2017-11-15T14:14:40.478Z,98423.30
2017-11-15T14:17:10.514Z,98413.11
2017-11-15T14:19:40.829Z,98415.41
2017-11-15T14:22:10.463Z,98415.42
2017-11-15T14:24:40.423Z,98411.67
2017-11-15T14:27:09.335Z,98413.75
2017-11-15T14:29:38.220Z,98411.94
2017-11-15T14:32:06.971Z,98410.16
2017-11-15T14:34:36.865Z,98403.72
2017-11-15T14:37:06.079Z,98408.20
2017-11-15T14:39:35.178Z,98404.55
2017-11-15T14:42:03.892Z,98403.98
2017-11-15T14:44:32.816Z,98412.67
2017-11-15T14:47:01.651Z,98412.66
2017-11-15T14:49:30.710Z,98410.02
2017-11-15T14:51:59.606Z,98407.47
2017-11-15T14:54:28.493Z,98408.00
2017-11-15T14:56:57.283Z,98407.75
2017-11-15T14:59:26.176Z,98399.91
2017-11-15T15:01:55.048Z,98395.13
2017-11-15T15:04:23.976Z,98394.45
2017-11-15T15:06:52.705Z,98400.72
2017-11-15T15:09:21.744Z,98399.05
2017-11-15T15:11:50.624Z,98397.11
2017-11-15T15:14:19.550Z,98402.31
2017-11-15T15:16:48.457Z,98404.58
2017-11-15T15:19:17.397Z,98403.94
2017-11-15T15:21:46.502Z,98404.95
2017-11-15T15:24:15.492Z,98400.39
2017-11-15T15:26:44.607Z,98400.84
2017-11-15T15:29:13.724Z,98398.45
2017-11-15T15:31:42.426Z,98403.67
2017-11-15T15:34:12.014Z,98401.22
2017-11-15T15:36:40.677Z,98396.84
2017-11-15T15:39:09.680Z,98402.83
2017-11-15T15:41:39.030Z,98405.84
2017-11-15T15:44:08.634Z,98408.47
2017-11-15T15:46:37.473Z,98410.30
2017-11-15T15:49:06.279Z,98416.22
2017-11-15T15:51:35.703Z,98414.25
2017-11-15T15:54:04.932Z,98409.60
2017-11-15T15:56:34.740Z,98412.08
2017-11-15T15:59:03.658Z,98410.77
2017-11-15T16:01:33.255Z,98418.49
2017-11-15T16:04:02.371Z,98419.40
2017-11-15T16:06:31.671Z,98424.67
2017-11-15T16:09:00.582Z,98427.06
2017-11-15T16:11:30.097Z,98428.34
2017-11-15T16:13:59.063Z,98429.72
2017-11-15T16:16:27.941Z,98434.67
2017-11-15T16:18:56.859Z,98435.33
2017-11-15T16:21:25.621Z,98433.91
2017-11-15T16:23:54.915Z,98447.05
2017-11-15T16:26:23.865Z,98439.70
2017-11-15T16:28:53.765Z,98437.53
2017-11-15T16:31:22.514Z,98445.09
2017-11-15T16:33:51.296Z,98450.75
2017-11-15T16:36:20.130Z,98451.73
2017-11-15T16:38:48.944Z,98453.41
2017-11-15T16:41:17.741Z,98465.54
2017-11-15T16:43:46.933Z,98458.27
2017-11-15T16:46:15.667Z,98463.80
2017-11-15T16:48:44.618Z,98469.55
2017-11-15T16:51:14.233Z,98474.46
2017-11-15T16:53:44.165Z,98472.16
2017-11-15T16:56:13.449Z,98468.69
2017-11-15T16:58:50.973Z,98468.05
2017-11-15T17:01:20.522Z,98468.66
2017-11-15T17:06:34.861Z,98483.65
2017-11-15T17:09:03.657Z,98481.70
2017-11-15T17:11:32.441Z,98475.17
2017-11-15T17:14:01.301Z,98482.44
2017-11-15T17:16:30.134Z,98483.69
2017-11-15T17:18:59.422Z,98487.34
2017-11-15T17:21:28.320Z,98488.55
2017-11-15T17:23:57.238Z,98485.22
2017-11-15T17:26:26.122Z,98488.12
2017-11-15T17:28:54.982Z,98487.30
2017-11-15T17:31:23.932Z,98491.59
2017-11-15T17:33:52.849Z,98489.20
2017-11-15T17:36:22.784Z,98487.55
2017-11-15T17:38:52.747Z,98492.33
2017-11-15T17:41:23.525Z,98486.98
2017-11-15T17:43:53.491Z,98491.09
2017-11-15T17:46:23.623Z,98495.82
2017-11-15T17:48:53.108Z,98500.51
2017-11-15T17:51:24.143Z,98497.13
2017-11-15T17:53:53.833Z,98502.38
2017-11-15T17:56:23.708Z,98501.20
2017-11-15T17:58:53.843Z,98499.97
2017-11-15T18:01:23.035Z,98495.58
2017-11-15T18:03:55.872Z,98490.80
2017-11-15T18:06:26.183Z,98497.42
2017-11-15T18:08:58.775Z,98501.02
2017-11-15T18:11:27.642Z,98508.17
2017-11-15T18:13:57.321Z,98508.86
2017-11-15T18:16:26.584Z,98505.78
2017-11-15T18:18:56.470Z,98505.17
2017-11-15T18:21:25.193Z,98492.77
2017-11-15T18:23:54.224Z,98497.61
2017-11-15T18:26:23.256Z,98494.44
2017-11-15T18:28:52.981Z,98497.30
2017-11-15T18:31:22.749Z,98485.16
2017-11-15T18:33:51.979Z,98490.83
2017-11-15T18:36:21.305Z,98493.50
2017-11-15T18:38:50.745Z,98491.27
2017-11-15T18:41:20.093Z,98491.59
2017-11-15T18:43:49.246Z,98495.83
2017-11-15T18:46:19.165Z,98493.90
2017-11-15T18:48:50.704Z,98496.05
2017-11-15T18:51:19.774Z,98495.29
2017-11-15T18:53:50.233Z,98490.05
2017-11-15T18:56:20.765Z,98490.17
2017-11-15T18:58:50.943Z,98502.86
2017-11-15T19:01:20.034Z,98490.42
2017-11-15T19:03:50.882Z,98497.53
2017-11-15T19:06:19.901Z,98489.46
2017-11-15T19:08:50.446Z,98486.02
2017-11-15T19:11:21.109Z,98489.73
2017-11-15T19:13:51.260Z,98493.81
2017-11-15T19:16:21.807Z,98492.09
2017-11-15T19:18:53.576Z,98499.83
2017-11-15T19:21:23.615Z,98498.37
2017-11-15T19:23:53.652Z,98499.71
2017-11-15T19:26:23.958Z,98498.37
2017-11-15T19:28:53.512Z,98493.81
2017-11-15T19:31:23.940Z,98498.97
2017-11-15T19:33:53.324Z,98496.26
2017-11-15T19:36:24.204Z,98501.30
2017-11-15T19:38:54.147Z,98506.42
2017-11-15T19:41:24.151Z,98506.23
2017-11-15T19:43:53.968Z,98497.14
2017-11-15T19:46:23.346Z,98490.48
2017-11-15T19:48:52.077Z,98494.53
2017-11-15T19:51:21.588Z,98486.42
2017-11-15T19:53:50.406Z,98487.69
2017-11-15T19:56:19.347Z,98492.37
2017-11-15T19:58:48.783Z,98491.00
2017-11-15T20:01:19.808Z,98489.02
2017-11-15T20:03:49.232Z,98484.72
2017-11-15T20:06:18.182Z,98489.69
2017-11-15T20:08:46.959Z,98492.31
2017-11-15T20:11:15.977Z,98491.36
2017-11-15T20:13:44.941Z,98491.33
2017-11-15T20:16:13.890Z,98489.16
2017-11-15T20:18:42.788Z,98489.34
2017-11-15T20:21:14.118Z,98484.93
2017-11-15T20:23:46.060Z,98479.09
2017-11-15T20:26:17.265Z,98482.14
2017-11-15T20:28:46.980Z,98488.56
2017-11-15T20:31:15.889Z,98486.11
2017-11-15T20:33:45.772Z,98491.76
2017-11-15T20:36:14.944Z,98494.58
2017-11-15T20:38:44.249Z,98501.70
2017-11-15T20:41:15.679Z,98495.32
2017-11-15T20:43:45.463Z,98493.67
2017-11-15T20:46:15.138Z,98504.16
2017-11-15T20:48:45.948Z,98497.81
2017-11-15T20:51:16.827Z,98506.83
2017-11-15T20:53:46.481Z,98500.47
2017-11-15T20:56:18.411Z,98503.88
2017-11-15T20:58:47.625Z,98508.85
2017-11-15T21:01:17.156Z,98498.75
2017-11-15T21:03:46.525Z,98494.91
2017-11-15T21:06:16.765Z,98493.44
2017-11-15T21:08:47.429Z,98486.11
2017-11-15T21:11:16.951Z,98490.59
2017-11-15T21:13:48.227Z,98489.53
2017-11-15T21:16:18.776Z,98491.84
2017-11-15T21:18:47.546Z,98489.45
2017-11-15T21:21:16.579Z,98488.88
2017-11-15T21:23:47.081Z,98470.50
2017-11-15T21:26:16.067Z,98473.64
2017-11-15T21:28:45.582Z,98476.89
2017-11-15T21:31:15.342Z,98469.74
2017-11-15T21:33:45.964Z,98469.43
2017-11-15T21:36:15.025Z,98467.14
2017-11-15T21:38:44.124Z,98458.61
2017-11-15T21:41:13.603Z,98461.25
2017-11-15T21:43:43.334Z,98452.18
2017-11-15T21:46:12.274Z,98461.32
2017-11-15T21:48:44.250Z,98457.23
2017-11-15T21:51:12.990Z,98448.89
2017-11-15T21:53:41.693Z,98447.73
2017-11-15T21:56:12.164Z,98446.19
2017-11-15T21:58:41.911Z,98455.02
2017-11-15T22:01:12.469Z,98451.98
2017-11-15T22:03:42.250Z,98446.09
2017-11-15T22:06:11.093Z,98447.30
2017-11-15T22:08:40.716Z,98453.83
2017-11-15T22:11:12.100Z,98454.81
2017-11-15T22:13:40.936Z,98454.74
2017-11-15T22:16:10.002Z,98455.22
2017-11-15T22:18:40.074Z,98452.20
2017-11-15T22:21:09.241Z,98453.20
2017-11-15T22:23:38.222Z,98449.47
2017-11-15T22:26:09.213Z,98453.13
2017-11-15T22:28:38.112Z,98450.39
2017-11-15T22:31:07.105Z,98458.46
2017-11-15T22:33:37.694Z,98452.17
2017-11-15T22:36:07.051Z,98456.99
2017-11-15T22:38:35.995Z,98465.47
2017-11-15T22:41:04.873Z,98463.61
2017-11-15T22:43:33.572Z,98455.66
2017-11-15T22:46:02.374Z,98452.84
2017-11-15T22:48:31.333Z,98458.39
2017-11-15T22:51:00.173Z,98449.63
2017-11-15T22:53:28.976Z,98450.34
2017-11-15T22:55:59.062Z,98445.64
2017-11-15T22:58:28.212Z,98445.03
2017-11-15T23:00:57.078Z,98441.81
2017-11-15T23:03:25.905Z,98445.88
2017-11-15T23:05:55.592Z,98438.37
2017-11-15T23:08:26.975Z,98437.61
2017-11-15T23:10:57.709Z,98444.42
2017-11-15T23:13:29.634Z,98437.52
2017-11-15T23:16:00.693Z,98437.20
2017-11-15T23:18:30.074Z,98437.20
2017-11-15T23:21:00.494Z,98436.19
2017-11-15T23:23:31.284Z,98439.28
2017-11-15T23:28:35.453Z,98443.56
2017-11-15T23:31:04.578Z,98448.05
2017-11-15T23:33:34.389Z,98450.30
2017-11-15T23:36:03.229Z,98447.39
2017-11-15T23:38:32.737Z,98446.92
2017-11-15T23:41:01.553Z,98451.64
2017-11-15T23:43:30.234Z,98439.31
2017-11-15T23:45:59.905Z,98441.63
2017-11-15T23:48:29.243Z,98435.75
2017-11-15T23:50:59.283Z,98439.53
2017-11-15T23:53:29.603Z,98437.92
2017-11-15T23:55:58.439Z,98441.31
2017-11-15T23:58:28.281Z,98435.39
